This is the latest recevied weather packets stored in our database for station/object YO6FNF-10. If no packets are shown the sender has not sent any weather packets the latest 10 day(s).
| Time | Temp. | Humidity | Pressure | Rain* | Wind** | Luminosity | Snow |
|---|---|---|---|---|---|---|---|
| 1777911803 | 21.11° C | 33% | 1016.3 hPa | - | - | - | - |
| 1777910903 | 21.67° C | 32% | 1016.2 hPa | - | - | - | - |
| 1777910003 | 21.67° C | 33% | 1016.2 hPa | - | - | - | - |
| 1777909103 | 22.22° C | 31% | 1016.2 hPa | - | - | - | - |
| 1777908203 | 22.78° C | 30% | 1016.2 hPa | - | - | - | - |
| 1777907302 | 23.33° C | 27% | 1016.1 hPa | - | - | - | - |
| 1777906402 | 27.22° C | 23% | 1016.2 hPa | - | - | - | - |
| 1777905502 | 27.78° C | 22% | 1016.3 hPa | - | - | - | - |
| 1777904602 | 27.22° C | 25% | 1016.3 hPa | - | - | - | - |
| 1777903701 | 24.44° C | 27% | 1016.4 hPa | - | - | - | - |
| 1777902801 | 24.44° C | 27% | 1016.5 hPa | - | - | - | - |
| 1777901901 | 23.89° C | 29% | 1016.7 hPa | - | - | - | - |
| 1777873273 | 11.11° C | 55% | 1020.5 hPa | - | - | - | - |
| 1777872373 | 9.44° C | 59% | 1020.6 hPa | - | - | - | - |
| 1777871473 | 8.89° C | 60% | 1020.5 hPa | - | - | - | - |
| 1777870573 | 8.33° C | 61% | 1020.5 hPa | - | - | - | - |
| 1777869673 | 7.22° C | 65% | 1020.6 hPa | - | - | - | - |
| 1777868773 | 6.67° C | 67% | 1020.5 hPa | - | - | - | - |
| 1777867872 | 6.11° C | 68% | 1020.7 hPa | - | - | - | - |
| 1777866972 | 6.11° C | 68% | 1020.6 hPa | - | - | - | - |
| 1777866072 | 5.56° C | 68% | 1020.6 hPa | - | - | - | - |
| 1777865172 | 5° C | 69% | 1020.5 hPa | - | - | - | - |
| 1777864272 | 5° C | 69% | 1020.6 hPa | - | - | - | - |
| 1777863371 | 5° C | 68% | 1020.7 hPa | - | - | - | - |
| 1777862471 | 5° C | 68% | 1020.7 hPa | - | - | - | - |
* Rain since midnight (hover to see other rain measurements)
** Current wind speed in m/s (hover to see current wind gust speed)